Detall de PIREP

Printer-friendly versionPDF version

[2013/11/30 19:01:00]
Flight IATA:CT1001
Pilot Number:026
Company ICAO:CAT
Aircraft Type:DC85/A
PAX:132
Aircraft Registration:PAX
Departing Airport: LERS
Destination Airport: LEMH
Alternate Airport:LEPA
Online: VATSIM
Route:EBROX B28 BCN H70 SARGO
Flight Level:F130
No Slew and time accel
No pause
Crash detect
Detect pilot in Cockpit between each 30 and 45 minutes
19:01 Zero fuel Weight: 178723 Lbs, Fuel Weight: 21000 Lbs
19:01 VATSIM:LERS 301830Z 02006KT 9999 FEW020 07/03 Q1013
19:01 VATSIM:LEMH 301830Z 01003KT 6000 -RA FEW010 BKN035 05/04 Q1012
19:01 VOICE CATALONIAN / IFR CLASSIC
19:05 Parking Brakes off
19:13 Take-off
19:13 Take off Weight: 198850 Lbs
19:13 Wind: 013º @ 006 Knots Heading: 067º
19:13 POS N41º 09´ 01´´ E001º 10´ 41´´
19:13 Gear Up: 165 Knots
19:13 Flaps:2 at 165 Knots
19:13 Gear Down: 169 Knots
19:13 Gear Up: 173 Knots
19:14 Flaps:1 at 172 Knots
19:16 Flaps:0 at 157 Knots
19:22 TOC
19:22 Fuel Weight: 17595 Lb
19:28 Wind:020º@018 Knots Heading: 114º Ground Speed: 383 Knots Altitude 13008 ft
19:41 TOD
19:41 Fuel Weight: 13662 Lb
19:43 Wind:029º@001 Knots Heading: 163º Ground Speed: 320 Knots Altitude 9855 ft
19:53 Flaps:1 at 218 Knots
19:53 Gear Down: 200 Knots
19:54 Flaps:2 at 149 Knots
19:54 Flaps:3 at 162 Knots
19:55 Flaps:4 at 165 Knots
19:55 Flaps:5 at 152 Knots
19:56 TouchDown:Rate -363 ft/min Speed: 123 Knots
19:56 VATSIM:LEMH 301930Z 00000KT 8000 -RA FEW010 BKN044 05/04 Q1012
19:56 Land
19:56 Wind:024º@000 Knots
19:56 Heading: 009º
19:56 Flight Duration: 00:43
19:56 Landing Weight: 191268 Lbs
19:56 POS N39º 51´ 59´´ E004º 13´ 10´´
19:59 Parking brakes on
19:59 Block to Block Duration: 00:54
19:59 Final Fuel: 12275 Lbls
19:59 Spent Fuel: 8725 Lbls
19:59 Flight Length: 216 NM
19:59 TOD Land Length: 59 NM

Exportar CSV

Powered by Drupal - Modified by Danger4k